createdAt,value
2019-03-19T00:01:10.606Z,90.09
2019-03-19T00:03:37.655Z,90.06
2019-03-19T00:06:04.940Z,89.87
2019-03-19T00:08:32.346Z,89.86
2019-03-19T00:10:59.383Z,89.97
2019-03-19T00:13:26.427Z,89.87
2019-03-19T00:15:53.472Z,89.94
2019-03-19T00:18:20.841Z,89.95
2019-03-19T00:20:47.896Z,89.94
2019-03-19T00:23:15.184Z,89.81
2019-03-19T00:25:42.234Z,89.79
2019-03-19T00:28:09.548Z,90.02
2019-03-19T00:30:36.599Z,89.89
2019-03-19T00:33:04.056Z,89.98
2019-03-19T00:35:31.424Z,89.98
2019-03-19T00:37:58.455Z,89.91
2019-03-19T00:40:25.508Z,89.87
2019-03-19T00:42:52.552Z,89.79
2019-03-19T00:45:19.828Z,89.76
2019-03-19T00:47:47.175Z,89.79
2019-03-19T00:50:15.296Z,89.85
2019-03-19T00:52:42.605Z,89.71
2019-03-19T00:55:09.945Z,89.70
2019-03-19T00:57:37.298Z,89.64
2019-03-19T01:00:04.597Z,89.62
2019-03-19T01:02:31.702Z,89.57
2019-03-19T01:04:59.072Z,89.62
2019-03-19T01:07:26.113Z,89.59
2019-03-19T01:09:53.170Z,89.58
2019-03-19T01:12:20.202Z,89.67
2019-03-19T01:14:48.576Z,89.92
2019-03-19T01:17:15.613Z,89.87
2019-03-19T01:19:42.670Z,89.85
2019-03-19T01:22:10.026Z,89.83
2019-03-19T01:24:37.078Z,89.88
2019-03-19T01:27:04.126Z,90.09
2019-03-19T01:29:31.180Z,90.19
2019-03-19T01:31:58.224Z,90.24
2019-03-19T01:34:25.346Z,90.23
2019-03-19T01:36:52.635Z,90.19
2019-03-19T01:39:19.688Z,90.16
2019-03-19T01:41:47.049Z,90.05
2019-03-19T01:44:14.336Z,90.02
2019-03-19T01:46:41.640Z,90.03
2019-03-19T01:49:08.992Z,90.05
2019-03-19T01:51:36.360Z,90.10
2019-03-19T01:54:04.740Z,90.21
2019-03-19T01:56:32.058Z,90.13
2019-03-19T01:59:00.064Z,90.00
2019-03-19T02:01:27.116Z,89.80
2019-03-19T02:03:54.399Z,89.80
2019-03-19T02:06:21.490Z,89.74
2019-03-19T02:08:48.764Z,89.58
2019-03-19T02:11:15.816Z,89.60
2019-03-19T02:13:42.857Z,89.62
2019-03-19T02:16:09.969Z,89.67
2019-03-19T02:18:37.002Z,89.66
2019-03-19T02:21:04.288Z,89.71
2019-03-19T02:23:31.315Z,89.72
2019-03-19T02:25:58.351Z,89.80
2019-03-19T02:28:25.381Z,89.68
2019-03-19T02:30:52.435Z,89.60
2019-03-19T02:33:19.728Z,89.56
2019-03-19T02:35:47.011Z,89.65
2019-03-19T02:38:14.287Z,89.69
2019-03-19T02:40:41.354Z,89.66
2019-03-19T02:43:08.604Z,89.59
2019-03-19T02:45:35.652Z,89.48
2019-03-19T02:48:03.903Z,89.36
2019-03-19T02:50:31.220Z,89.26
2019-03-19T02:52:58.504Z,89.14
2019-03-19T02:55:25.797Z,89.11
2019-03-19T02:57:52.901Z,89.12
2019-03-19T03:00:20.182Z,89.07
2019-03-19T03:02:47.309Z,89.06
2019-03-19T03:05:14.344Z,89.11
2019-03-19T03:07:41.628Z,89.09
2019-03-19T03:10:08.661Z,89.15
2019-03-19T03:12:35.715Z,89.22
2019-03-19T03:15:02.988Z,89.21
2019-03-19T03:17:30.291Z,89.24
2019-03-19T03:19:57.468Z,89.16
2019-03-19T03:22:24.518Z,89.05
2019-03-19T03:24:51.794Z,89.01
2019-03-19T03:27:18.843Z,88.94
2019-03-19T03:29:45.876Z,89.18
2019-03-19T03:32:13.187Z,89.56
2019-03-19T03:34:40.485Z,89.85
2019-03-19T03:37:07.532Z,89.70
2019-03-19T03:39:34.806Z,89.50
2019-03-19T03:42:02.102Z,89.49
2019-03-19T03:44:29.381Z,89.38
2019-03-19T03:46:57.400Z,89.29
2019-03-19T03:49:24.429Z,89.20
2019-03-19T03:51:51.474Z,89.15
2019-03-19T03:54:18.500Z,89.09
2019-03-19T03:56:45.544Z,89.00
2019-03-19T03:59:12.818Z,88.92
2019-03-19T04:01:39.884Z,88.82
2019-03-19T04:04:06.951Z,88.67
2019-03-19T04:06:33.967Z,88.79
2019-03-19T04:09:01.256Z,89.02
2019-03-19T04:11:29.817Z,89.03
2019-03-19T04:13:57.105Z,88.86
2019-03-19T04:16:24.394Z,88.75
2019-03-19T04:18:51.435Z,88.76
2019-03-19T04:21:18.473Z,88.92
2019-03-19T04:23:45.755Z,88.86
2019-03-19T04:26:13.024Z,88.84
2019-03-19T04:28:40.071Z,88.80
2019-03-19T04:31:07.105Z,88.82
2019-03-19T04:33:34.398Z,88.78
2019-03-19T04:36:01.676Z,88.90
2019-03-19T04:38:28.969Z,88.90
2019-03-19T04:40:56.241Z,88.96
2019-03-19T04:46:13.716Z,88.97
2019-03-19T04:48:41.592Z,88.98
2019-03-19T04:51:08.936Z,88.89
2019-03-19T04:53:36.291Z,88.90
2019-03-19T04:56:10.013Z,88.92
2019-03-19T04:58:37.063Z,88.89
2019-03-19T05:01:04.397Z,88.86
2019-03-19T05:03:31.755Z,88.84
2019-03-19T05:05:59.703Z,88.83
2019-03-19T05:08:27.300Z,88.93
2019-03-19T05:10:54.640Z,89.03
2019-03-19T05:15:58.667Z,89.00
2019-03-19T05:18:25.961Z,89.13
2019-03-19T05:20:53.296Z,89.74
2019-03-19T05:23:20.472Z,89.75
2019-03-19T05:25:47.505Z,89.67
2019-03-19T05:28:14.554Z,89.58
2019-03-19T05:30:41.585Z,89.50
2019-03-19T05:33:08.637Z,89.60
2019-03-19T05:35:35.670Z,89.47
2019-03-19T05:38:02.963Z,89.56
2019-03-19T05:40:29.999Z,89.60
2019-03-19T05:42:57.329Z,89.65
2019-03-19T05:45:24.673Z,89.70
2019-03-19T05:47:51.708Z,89.58
2019-03-19T05:50:18.766Z,89.40
2019-03-19T05:52:48.269Z,89.18
2019-03-19T05:55:14.786Z,89.04
2019-03-19T05:57:49.559Z,88.83
2019-03-19T06:00:10.653Z,88.60
2019-03-19T06:02:38.892Z,88.55
2019-03-19T06:05:05.947Z,88.41
2019-03-19T06:07:33.052Z,88.21
2019-03-19T06:10:00.378Z,88.03
2019-03-19T06:12:27.657Z,88.03
2019-03-19T06:14:54.981Z,88.04
2019-03-19T06:17:22.075Z,88.18
2019-03-19T06:19:49.065Z,90.00
2019-03-19T06:22:16.095Z,90.16
2019-03-19T06:24:43.211Z,88.75
2019-03-19T06:27:10.243Z,87.42
2019-03-19T06:29:37.580Z,85.71
2019-03-19T06:32:04.932Z,78.36
2019-03-19T06:34:32.288Z,76.70
2019-03-19T06:36:59.658Z,77.24
2019-03-19T06:39:27.016Z,72.93
2019-03-19T06:41:54.050Z,66.18
2019-03-19T06:44:21.103Z,58.53
2019-03-19T06:46:48.141Z,61.67
2019-03-19T06:49:15.516Z,56.68
2019-03-19T06:51:42.851Z,54.71
2019-03-19T06:54:10.154Z,52.23
2019-03-19T06:56:38.264Z,51.79
2019-03-19T06:59:05.314Z,48.31
2019-03-19T07:01:32.357Z,48.60
2019-03-19T07:03:59.408Z,49.96
2019-03-19T07:06:26.451Z,48.00
2019-03-19T07:08:53.824Z,47.27
2019-03-19T07:11:20.876Z,50.49
2019-03-19T07:13:48.161Z,53.59
2019-03-19T07:16:15.203Z,49.36
2019-03-19T07:18:42.531Z,48.09
2019-03-19T07:21:09.582Z,46.53
2019-03-19T07:23:36.949Z,45.89
2019-03-19T07:26:03.998Z,45.14
2019-03-19T07:28:32.361Z,44.46
2019-03-19T07:30:59.715Z,42.07
2019-03-19T07:33:27.088Z,42.37
2019-03-19T07:35:54.141Z,41.63
2019-03-19T07:38:21.183Z,41.00
2019-03-19T07:40:48.244Z,38.96
2019-03-19T07:43:15.572Z,36.95
2019-03-19T07:45:42.944Z,37.44
2019-03-19T07:48:10.282Z,37.10
2019-03-19T07:50:37.637Z,38.21
2019-03-19T07:53:05.003Z,35.80
2019-03-19T07:55:32.346Z,37.80
2019-03-19T07:57:59.625Z,40.76
2019-03-19T08:00:26.673Z,42.91
2019-03-19T08:02:53.714Z,44.56
2019-03-19T08:05:20.764Z,45.34
2019-03-19T08:07:48.128Z,45.43
2019-03-19T08:10:15.454Z,43.05
2019-03-19T08:12:42.812Z,40.49
2019-03-19T08:15:09.856Z,39.20
2019-03-19T08:17:36.902Z,38.11
2019-03-19T08:20:04.274Z,38.36
2019-03-19T08:22:31.332Z,41.16
2019-03-19T08:24:59.439Z,43.61
2019-03-19T08:27:26.487Z,43.64
2019-03-19T08:29:54.904Z,42.81
2019-03-19T08:32:22.208Z,43.61
2019-03-19T08:34:49.515Z,41.81
2019-03-19T08:37:16.871Z,38.05
2019-03-19T08:39:44.224Z,36.91
2019-03-19T08:42:11.615Z,36.05
2019-03-19T08:44:38.864Z,36.11
2019-03-19T08:47:05.912Z,34.87
2019-03-19T08:49:32.950Z,36.30
2019-03-19T08:52:00.300Z,33.59
2019-03-19T08:54:27.340Z,32.74
2019-03-19T08:56:54.624Z,31.74
2019-03-19T08:59:21.939Z,30.31
2019-03-19T09:01:49.296Z,30.26
2019-03-19T09:04:16.396Z,28.87
2019-03-19T09:06:43.451Z,28.64
2019-03-19T09:09:10.477Z,27.87
2019-03-19T09:11:37.808Z,27.53
2019-03-19T09:14:05.149Z,29.00
2019-03-19T09:16:32.502Z,31.25
2019-03-19T09:18:59.877Z,33.75
2019-03-19T09:21:27.233Z,36.79
2019-03-19T09:23:54.265Z,38.89
2019-03-19T09:26:21.312Z,38.96
2019-03-19T09:28:48.665Z,37.23
2019-03-19T09:31:16.022Z,33.06
2019-03-19T09:33:43.373Z,31.88
2019-03-19T09:36:10.656Z,30.39
2019-03-19T09:38:38.783Z,26.41
2019-03-19T09:41:06.156Z,26.04
2019-03-19T09:43:33.527Z,25.05
2019-03-19T09:46:00.864Z,25.04
2019-03-19T09:48:28.379Z,25.91
2019-03-19T09:50:55.799Z,25.01
2019-03-19T09:53:22.856Z,25.36
2019-03-19T09:55:50.184Z,23.62
2019-03-19T09:58:17.545Z,24.14
2019-03-19T10:00:44.913Z,26.08
2019-03-19T10:03:12.249Z,27.09
2019-03-19T10:05:40.256Z,27.26
2019-03-19T10:08:07.371Z,28.08
2019-03-19T10:10:34.829Z,30.44
2019-03-19T10:13:02.286Z,33.70
2019-03-19T10:15:29.327Z,35.10
2019-03-19T10:17:56.381Z,37.05
2019-03-19T10:20:23.415Z,37.47
2019-03-19T10:22:50.783Z,38.24
2019-03-19T10:25:18.260Z,37.42
2019-03-19T10:27:45.315Z,36.14
2019-03-19T10:30:12.667Z,33.38
2019-03-19T10:32:40.017Z,34.34
2019-03-19T10:35:07.058Z,34.81
2019-03-19T10:37:34.173Z,36.66
2019-03-19T10:40:01.218Z,37.05
2019-03-19T10:42:28.261Z,35.73
2019-03-19T10:44:55.296Z,31.30
2019-03-19T10:47:22.695Z,27.98
2019-03-19T10:49:49.977Z,25.64
2019-03-19T10:52:17.304Z,24.27
2019-03-19T10:54:45.405Z,22.77
2019-03-19T10:57:12.457Z,22.35
2019-03-19T10:59:48.778Z,22.76
2019-03-19T11:02:08.584Z,21.66
2019-03-19T11:04:35.615Z,24.00
2019-03-19T11:07:02.973Z,26.21
2019-03-19T11:09:30.324Z,28.08
2019-03-19T11:11:57.377Z,29.35
2019-03-19T11:14:24.420Z,30.47
2019-03-19T11:16:51.800Z,30.09
2019-03-19T11:19:18.853Z,28.32
2019-03-19T11:21:47.304Z,27.57
2019-03-19T11:24:15.685Z,28.26
2019-03-19T11:26:43.040Z,27.08
2019-03-19T11:29:10.397Z,25.94
2019-03-19T11:31:37.750Z,25.61
2019-03-19T11:34:05.309Z,24.70
2019-03-19T11:36:32.348Z,25.93
2019-03-19T11:38:59.732Z,29.66
2019-03-19T11:41:26.770Z,30.21
2019-03-19T11:43:54.117Z,30.87
2019-03-19T11:46:21.510Z,32.89
2019-03-19T11:48:48.564Z,34.65
2019-03-19T11:51:15.876Z,34.80
2019-03-19T11:53:43.229Z,34.66
2019-03-19T11:56:10.264Z,35.13
2019-03-19T11:58:37.388Z,34.75
2019-03-19T12:01:04.425Z,33.83
2019-03-19T12:03:31.568Z,30.51
2019-03-19T12:05:58.603Z,28.12
2019-03-19T12:08:25.699Z,28.44
2019-03-19T12:10:53.076Z,27.94
2019-03-19T12:13:20.126Z,29.76
2019-03-19T12:15:47.161Z,30.61
2019-03-19T12:18:14.209Z,28.96
2019-03-19T12:20:42.461Z,27.11
2019-03-19T12:23:09.751Z,26.38
2019-03-19T12:25:37.053Z,24.37
2019-03-19T12:28:04.100Z,22.93
2019-03-19T12:30:31.229Z,24.19
2019-03-19T12:32:58.277Z,23.04
2019-03-19T12:35:25.316Z,21.93
2019-03-19T12:37:52.653Z,21.44
2019-03-19T12:40:19.688Z,18.99
2019-03-19T12:42:47.992Z,18.92
2019-03-19T12:45:15.053Z,17.96
2019-03-19T12:47:42.382Z,18.33
2019-03-19T12:50:09.429Z,21.07
2019-03-19T12:52:36.785Z,23.27
2019-03-19T12:55:04.158Z,22.54
2019-03-19T12:57:31.278Z,24.30
2019-03-19T12:59:58.323Z,26.80
2019-03-19T13:02:25.613Z,27.71
2019-03-19T13:04:52.661Z,29.92
2019-03-19T13:07:19.702Z,28.78
2019-03-19T13:09:47.041Z,26.27
2019-03-19T13:12:14.074Z,27.49
2019-03-19T13:14:41.121Z,25.17
2019-03-19T13:17:08.512Z,25.03
2019-03-19T13:19:35.565Z,24.45
2019-03-19T13:22:02.594Z,25.02
2019-03-19T13:24:29.645Z,26.78
2019-03-19T13:26:56.929Z,29.38
2019-03-19T13:29:23.978Z,30.96
2019-03-19T13:31:51.019Z,30.86
2019-03-19T13:34:18.319Z,31.59
2019-03-19T13:36:45.693Z,33.13
2019-03-19T13:39:13.048Z,34.60
2019-03-19T13:41:40.090Z,35.15
2019-03-19T13:44:07.137Z,34.62
2019-03-19T13:46:34.517Z,35.07
2019-03-19T13:49:01.878Z,35.15
2019-03-19T13:51:29.209Z,34.90
2019-03-19T13:53:56.571Z,34.40
2019-03-19T13:56:24.434Z,33.22
2019-03-19T13:58:51.808Z,33.82
2019-03-19T14:01:18.841Z,36.01
2019-03-19T14:03:45.882Z,36.82
2019-03-19T14:06:12.939Z,37.37
2019-03-19T14:08:39.969Z,37.81
2019-03-19T14:11:07.017Z,37.90
2019-03-19T14:13:34.049Z,37.68
2019-03-19T14:16:01.430Z,37.52
2019-03-19T14:18:28.537Z,37.63
2019-03-19T14:20:55.959Z,38.40
2019-03-19T14:23:23.241Z,39.42
2019-03-19T14:25:50.756Z,39.23
2019-03-19T14:28:19.706Z,38.86
2019-03-19T14:30:46.873Z,38.72
2019-03-19T14:33:13.896Z,39.64
2019-03-19T14:35:40.941Z,39.76
2019-03-19T14:38:08.046Z,39.34
2019-03-19T14:40:35.099Z,39.08
2019-03-19T14:43:02.133Z,36.40
2019-03-19T14:45:29.494Z,36.93
2019-03-19T14:47:56.525Z,38.37
2019-03-19T14:50:23.576Z,37.66
2019-03-19T14:52:50.616Z,37.44
2019-03-19T14:55:17.661Z,37.45
2019-03-19T14:57:44.697Z,37.81
2019-03-19T15:00:11.744Z,37.80
2019-03-19T15:02:39.128Z,38.02
2019-03-19T15:05:06.196Z,38.42
2019-03-19T15:07:33.552Z,38.84
2019-03-19T15:10:00.908Z,38.55
2019-03-19T15:12:29.015Z,39.25
2019-03-19T15:14:56.065Z,39.75
2019-03-19T15:17:23.096Z,39.77
2019-03-19T15:19:50.151Z,40.97
2019-03-19T15:22:17.483Z,41.69
2019-03-19T15:24:44.680Z,42.18
2019-03-19T15:27:12.069Z,42.92
2019-03-19T15:29:39.440Z,41.85
2019-03-19T15:32:06.778Z,42.42
2019-03-19T15:34:33.813Z,42.00
2019-03-19T15:37:01.827Z,42.32
2019-03-19T15:39:28.868Z,42.32
2019-03-19T15:41:56.196Z,42.81
2019-03-19T15:44:23.581Z,43.02
2019-03-19T15:46:50.927Z,42.14
2019-03-19T15:49:18.286Z,42.09
2019-03-19T15:51:45.637Z,41.33
2019-03-19T15:54:12.971Z,41.50
2019-03-19T15:56:40.324Z,42.02
2019-03-19T15:59:08.919Z,42.03
2019-03-19T16:04:15.019Z,42.25
2019-03-19T16:09:31.498Z,43.75
2019-03-19T16:12:00.912Z,44.25
2019-03-19T16:20:05.610Z,43.31
2019-03-19T16:25:06.281Z,42.58
2019-03-19T16:30:19.956Z,43.87
2019-03-19T16:32:57.063Z,43.66
2019-03-19T16:35:26.306Z,44.25
2019-03-19T16:38:02.523Z,43.86
2019-03-19T16:40:34.355Z,43.96
2019-03-19T16:45:32.899Z,44.48
2019-03-19T16:48:00.939Z,45.04
2019-03-19T16:50:28.125Z,44.88
2019-03-19T16:53:02.503Z,45.48
2019-03-19T17:00:56.350Z,45.70
2019-03-19T17:03:30.341Z,46.00
2019-03-19T17:06:02.807Z,45.50
2019-03-19T17:14:06.327Z,46.19
2019-03-19T17:16:39.261Z,46.51
2019-03-19T17:19:10.691Z,47.12
2019-03-19T17:21:42.066Z,47.53
2019-03-19T17:24:11.643Z,48.55
2019-03-19T17:26:39.080Z,48.58
2019-03-19T17:29:06.108Z,49.07
2019-03-19T17:36:53.287Z,50.19
2019-03-19T17:39:20.653Z,50.23
2019-03-19T17:41:52.193Z,50.36
2019-03-19T17:44:24.593Z,50.44
2019-03-19T17:46:54.832Z,50.49
2019-03-19T17:49:24.009Z,50.48
2019-03-19T17:51:51.179Z,50.95
2019-03-19T17:54:19.333Z,51.07
2019-03-19T17:56:49.431Z,50.85
2019-03-19T17:59:18.940Z,50.78
2019-03-19T18:01:46.492Z,50.60
2019-03-19T18:04:22.004Z,50.14
2019-03-19T18:06:49.602Z,49.97
2019-03-19T18:09:16.972Z,50.45
2019-03-19T18:11:45.744Z,51.21
2019-03-19T18:14:20.063Z,50.94
2019-03-19T18:19:21.038Z,51.27
2019-03-19T18:21:49.520Z,51.58
2019-03-19T18:24:22.990Z,52.01
2019-03-19T18:26:50.559Z,51.97
2019-03-19T18:29:24.300Z,51.87
2019-03-19T18:31:51.348Z,52.02
2019-03-19T18:34:26.768Z,52.08
2019-03-19T18:36:54.212Z,52.27
2019-03-19T18:39:25.768Z,52.59
2019-03-19T18:41:55.400Z,52.53
2019-03-19T18:47:12.215Z,52.49
2019-03-19T18:49:40.509Z,52.68
2019-03-19T18:52:12.340Z,52.68
2019-03-19T18:54:40.839Z,52.90
2019-03-19T18:57:07.894Z,52.67
2019-03-19T18:59:42.096Z,52.94
2019-03-19T19:02:12.358Z,53.19
2019-03-19T19:04:51.880Z,53.08
2019-03-19T19:07:19.204Z,53.52
2019-03-19T19:09:47.690Z,54.11
2019-03-19T19:12:15.059Z,54.82
2019-03-19T19:17:46.459Z,54.96
2019-03-19T19:20:14.623Z,54.48
2019-03-19T19:22:42.149Z,54.71
2019-03-19T19:25:27.668Z,55.27
2019-03-19T19:27:54.961Z,55.37
2019-03-19T19:30:24.147Z,55.61
2019-03-19T19:33:01.689Z,55.98
2019-03-19T19:35:23.323Z,56.73
2019-03-19T19:43:11.548Z,57.68
2019-03-19T19:45:39.712Z,60.04
2019-03-19T19:48:07.965Z,62.09
2019-03-19T19:50:41.143Z,62.05
2019-03-19T19:55:41.713Z,59.12
2019-03-19T19:58:10.148Z,60.51
2019-03-19T20:00:52.490Z,60.84
2019-03-19T20:03:20.771Z,60.52
2019-03-19T20:05:49.207Z,59.70
2019-03-19T20:08:21.934Z,59.62
2019-03-19T20:10:49.854Z,59.58
2019-03-19T20:13:18.443Z,58.98
2019-03-19T20:15:45.681Z,59.49
2019-03-19T20:20:52.219Z,59.21
2019-03-19T20:23:19.481Z,59.20
2019-03-19T20:25:48.962Z,58.61
2019-03-19T20:28:21.974Z,58.33
2019-03-19T20:31:02.288Z,58.19
2019-03-19T20:33:30.783Z,58.01
2019-03-19T20:36:03.550Z,57.98
2019-03-19T20:46:21.762Z,58.92
2019-03-19T20:48:49.967Z,59.57
2019-03-19T20:51:23.550Z,59.52
2019-03-19T20:53:50.720Z,59.96
2019-03-19T20:56:22.125Z,60.10
2019-03-19T21:01:22.391Z,60.30
2019-03-19T21:03:51.587Z,60.75
2019-03-19T21:06:19.120Z,60.88
2019-03-19T21:11:36.356Z,61.04
2019-03-19T21:19:10.201Z,60.92
2019-03-19T21:21:42.552Z,60.71
2019-03-19T21:24:23.788Z,60.64
2019-03-19T21:26:51.056Z,60.54
2019-03-19T21:29:22.709Z,61.39
2019-03-19T21:31:50.969Z,61.49
2019-03-19T21:34:28.581Z,62.32
2019-03-19T21:36:56.856Z,62.46
2019-03-19T21:39:29.193Z,62.93
2019-03-19T21:41:57.767Z,63.51
2019-03-19T21:44:28.404Z,63.95
2019-03-19T21:47:02.637Z,64.15
2019-03-19T21:52:24.971Z,64.73
2019-03-19T21:57:34.912Z,65.22
2019-03-19T22:00:02.130Z,65.26
2019-03-19T22:02:31.055Z,65.67
2019-03-19T22:04:58.105Z,66.51
2019-03-19T22:07:25.564Z,66.59
2019-03-19T22:09:52.608Z,66.18
2019-03-19T22:12:19.639Z,66.02
2019-03-19T22:14:47.013Z,66.16
2019-03-19T22:17:14.047Z,65.73
2019-03-19T22:19:41.092Z,65.65
2019-03-19T22:22:08.288Z,65.15
2019-03-19T22:24:35.332Z,65.40
2019-03-19T22:27:02.370Z,65.45
2019-03-19T22:29:29.569Z,65.62
2019-03-19T22:31:56.615Z,65.76
2019-03-19T22:34:23.908Z,65.64
2019-03-19T22:36:51.284Z,65.52
2019-03-19T22:39:18.621Z,65.51
2019-03-19T22:41:45.676Z,66.08
2019-03-19T22:44:13.021Z,66.27
2019-03-19T22:46:40.207Z,66.15
2019-03-19T22:49:07.238Z,66.29
2019-03-19T22:51:34.592Z,66.61
2019-03-19T22:54:01.945Z,67.04
2019-03-19T22:56:29.240Z,67.15
2019-03-19T22:58:56.555Z,67.55
2019-03-19T23:01:25.022Z,67.71
2019-03-19T23:03:52.392Z,68.28
2019-03-19T23:06:19.440Z,68.52
2019-03-19T23:08:46.777Z,68.68
2019-03-19T23:11:13.836Z,69.04
2019-03-19T23:13:40.886Z,69.20
2019-03-19T23:16:08.232Z,69.07
2019-03-19T23:18:35.689Z,69.25
2019-03-19T23:21:02.752Z,69.30
2019-03-19T23:23:30.215Z,69.60
2019-03-19T23:25:57.268Z,69.86
2019-03-19T23:28:24.597Z,69.66
2019-03-19T23:30:53.266Z,69.86
2019-03-19T23:33:20.544Z,69.80
2019-03-19T23:35:47.590Z,69.57
2019-03-19T23:38:14.941Z,70.03
2019-03-19T23:40:41.989Z,69.62
2019-03-19T23:43:09.025Z,69.19
2019-03-19T23:45:36.067Z,66.88
2019-03-19T23:48:03.105Z,64.21
2019-03-19T23:50:30.148Z,62.25
2019-03-19T23:52:57.427Z,62.47
2019-03-19T23:55:24.480Z,61.91
2019-03-19T23:57:51.837Z,60.84
